createdAt,value
2017-11-01T00:00:10.833Z,8.90
2017-11-01T00:02:37.289Z,9.03
2017-11-01T00:05:03.572Z,9.30
2017-11-01T00:07:30.227Z,8.30
2017-11-01T00:09:56.893Z,9.60
2017-11-01T00:12:24.103Z,9.90
2017-11-01T00:14:51.046Z,8.20
2017-11-01T00:17:19.415Z,8.40
2017-11-01T00:19:46.214Z,7.43
2017-11-01T00:22:14.463Z,8.67
2017-11-01T00:24:40.888Z,6.60
2017-11-01T00:27:09.156Z,8.30
2017-11-01T00:29:35.407Z,7.17
2017-11-01T00:32:02.400Z,6.37
2017-11-01T00:34:28.928Z,7.47
2017-11-01T00:36:56.043Z,7.10
2017-11-01T00:39:22.316Z,6.50
2017-11-01T00:41:49.404Z,6.67
2017-11-01T00:44:15.562Z,7.10
2017-11-01T00:46:41.734Z,6.60
2017-11-01T00:49:08.353Z,6.37
2017-11-01T00:51:34.589Z,6.77
2017-11-01T00:54:01.665Z,6.27
2017-11-01T00:56:27.903Z,7.13
2017-11-01T00:58:54.124Z,6.50
2017-11-01T01:01:20.467Z,6.83
2017-11-01T01:03:46.713Z,6.10
2017-11-01T01:06:13.886Z,7.23
2017-11-01T01:08:40.073Z,7.63
2017-11-01T01:11:06.561Z,6.70
2017-11-01T01:13:32.782Z,7.07
2017-11-01T01:15:58.942Z,6.57
2017-11-01T01:18:26.220Z,6.63
2017-11-01T01:20:53.162Z,7.23
2017-11-01T01:23:19.346Z,6.90
2017-11-01T01:25:46.289Z,6.93
2017-11-01T01:28:12.503Z,7.00
2017-11-01T01:30:40.009Z,8.00
2017-11-01T01:33:06.198Z,6.80
2017-11-01T01:35:32.414Z,6.40
2017-11-01T01:38:00.637Z,7.70
2017-11-01T01:40:27.718Z,7.73
2017-11-01T01:42:54.754Z,7.10
2017-11-01T01:45:21.348Z,6.97
2017-11-01T01:47:47.798Z,6.90
2017-11-01T01:50:14.769Z,6.27
2017-11-01T01:52:41.084Z,7.53
2017-11-01T01:55:08.114Z,7.10
2017-11-01T01:57:34.352Z,6.90
2017-11-01T02:00:00.590Z,6.57
2017-11-01T02:02:26.791Z,6.40
2017-11-01T02:04:53.381Z,7.43
2017-11-01T02:07:19.651Z,7.10
2017-11-01T02:09:46.219Z,7.20
2017-11-01T02:12:12.604Z,6.70
2017-11-01T02:19:44.419Z,6.57
2017-11-01T02:22:10.634Z,7.10
2017-11-01T02:24:36.875Z,6.73
2017-11-01T02:27:03.941Z,6.70
2017-11-01T02:29:30.324Z,7.20
2017-11-01T02:31:56.920Z,8.23
2017-11-01T02:34:23.152Z,6.60
2017-11-01T02:36:50.272Z,7.63
2017-11-01T02:39:17.063Z,7.70
2017-11-01T02:41:43.297Z,7.73
2017-11-01T02:44:09.542Z,6.47
2017-11-01T02:46:36.127Z,6.80
2017-11-01T02:49:02.738Z,7.00
2017-11-01T02:51:29.398Z,7.30
2017-11-01T02:53:56.006Z,7.33
2017-11-01T02:56:22.289Z,7.53
2017-11-01T02:58:49.584Z,6.63
2017-11-01T03:01:16.567Z,6.50
2017-11-01T03:03:42.831Z,6.03
2017-11-01T03:06:09.071Z,7.00
2017-11-01T03:08:35.688Z,6.77
2017-11-01T03:11:02.503Z,8.17
2017-11-01T03:13:29.841Z,6.60
2017-11-01T03:15:56.153Z,6.90
2017-11-01T03:18:22.388Z,7.70
2017-11-01T03:20:48.674Z,6.70
2017-11-01T03:23:15.091Z,7.77
2017-11-01T03:25:42.107Z,6.57
2017-11-01T03:28:08.327Z,6.83
2017-11-01T03:30:35.512Z,8.97
2017-11-01T03:33:01.718Z,6.60
2017-11-01T03:35:28.361Z,7.37
2017-11-01T03:37:55.312Z,6.83
2017-11-01T03:40:21.580Z,7.30
2017-11-01T03:42:48.141Z,7.57
2017-11-01T03:45:15.098Z,7.50
2017-11-01T03:47:41.292Z,7.40
2017-11-01T03:50:07.494Z,7.60
2017-11-01T03:52:33.742Z,7.33
2017-11-01T03:55:00.049Z,7.50
2017-11-01T03:57:26.554Z,8.97
2017-11-01T03:59:52.768Z,9.40
2017-11-01T04:02:19.051Z,7.40
2017-11-01T04:04:45.963Z,6.80
2017-11-01T04:07:12.173Z,8.13
2017-11-01T04:09:38.782Z,7.73
2017-11-01T04:12:05.018Z,7.93
2017-11-01T04:14:31.201Z,7.70
2017-11-01T04:16:57.432Z,6.70
2017-11-01T04:19:23.636Z,8.27
2017-11-01T04:21:49.810Z,7.47
2017-11-01T04:24:16.052Z,8.10
2017-11-01T04:26:42.676Z,7.50
2017-11-01T04:29:08.956Z,8.90
2017-11-01T04:31:35.185Z,6.90
2017-11-01T04:34:01.408Z,7.20
2017-11-01T04:36:27.765Z,8.57
2017-11-01T04:38:54.009Z,7.23
2017-11-01T04:41:20.228Z,7.80
2017-11-01T04:43:46.453Z,7.97
2017-11-01T04:46:12.625Z,8.47
2017-11-01T04:48:38.833Z,7.60
2017-11-01T04:51:09.990Z,6.90
2017-11-01T04:53:36.832Z,7.03
2017-11-01T04:56:03.062Z,7.50
2017-11-01T04:58:29.295Z,7.00
2017-11-01T05:00:57.266Z,8.07
2017-11-01T05:03:26.765Z,7.50
2017-11-01T05:05:53.779Z,7.40
2017-11-01T05:08:26.131Z,8.33
2017-11-01T05:10:55.385Z,7.70
2017-11-01T05:13:22.346Z,6.10
2017-11-01T05:15:49.534Z,7.17
2017-11-01T05:18:17.026Z,7.83
2017-11-01T05:20:43.632Z,7.43
2017-11-01T05:23:09.849Z,7.50
2017-11-01T05:25:39.987Z,7.10
2017-11-01T05:28:06.313Z,7.10
2017-11-01T05:30:32.577Z,8.00
2017-11-01T05:32:58.790Z,7.00
2017-11-01T05:35:25.178Z,7.00
2017-11-01T05:37:51.450Z,7.57
2017-11-01T05:40:18.054Z,7.90
2017-11-01T05:42:44.334Z,7.20
2017-11-01T05:45:10.812Z,7.53
2017-11-01T05:47:37.049Z,7.27
2017-11-01T05:50:03.355Z,8.13
2017-11-01T05:52:29.624Z,7.57
2017-11-01T05:54:55.883Z,7.60
2017-11-01T05:57:22.871Z,7.00
2017-11-01T05:59:50.045Z,6.90
2017-11-01T06:02:16.500Z,7.13
2017-11-01T06:04:43.704Z,5.80
2017-11-01T06:07:09.972Z,8.20
2017-11-01T06:09:37.009Z,8.10
2017-11-01T06:12:03.614Z,8.23
2017-11-01T06:14:29.882Z,8.77
2017-11-01T06:16:56.349Z,7.27
2017-11-01T06:19:22.622Z,7.80
2017-11-01T06:21:48.876Z,7.70
2017-11-01T06:24:15.076Z,8.77
2017-11-01T06:26:41.334Z,7.87
2017-11-01T06:29:07.598Z,9.10
2017-11-01T06:31:34.040Z,9.10
2017-11-01T06:34:02.195Z,7.93
2017-11-01T06:36:28.392Z,7.97
2017-11-01T06:38:54.826Z,8.00
2017-11-01T06:41:21.043Z,8.00
2017-11-01T06:43:47.551Z,9.20
2017-11-01T06:46:13.803Z,7.47
2017-11-01T06:48:40.424Z,8.20
2017-11-01T06:51:06.666Z,8.70
2017-11-01T06:53:33.131Z,8.23
2017-11-01T06:55:59.873Z,8.90
2017-11-01T06:58:26.136Z,7.60
2017-11-01T07:00:52.328Z,8.30
2017-11-01T07:03:23.838Z,8.87
2017-11-01T07:05:50.064Z,8.43
2017-11-01T07:08:16.306Z,8.27
2017-11-01T07:10:42.507Z,9.17
2017-11-01T07:13:09.487Z,8.87
2017-11-01T07:15:35.692Z,8.87
2017-11-01T07:18:03.172Z,7.83
2017-11-01T07:20:31.083Z,8.23
2017-11-01T07:22:57.655Z,7.70
2017-11-01T07:25:24.273Z,8.30
2017-11-01T07:27:50.469Z,9.07
2017-11-01T07:30:16.683Z,8.27
2017-11-01T07:32:42.863Z,8.27
2017-11-01T07:35:10.029Z,9.43
2017-11-01T07:37:36.242Z,8.30
2017-11-01T07:40:02.828Z,8.83
2017-11-01T07:42:29.013Z,7.97
2017-11-01T07:44:55.251Z,8.23
2017-11-01T07:47:21.454Z,9.40
2017-11-01T07:49:48.990Z,8.50
2017-11-01T07:52:15.192Z,8.30
2017-11-01T07:54:41.356Z,8.27
2017-11-01T07:57:08.393Z,8.97
2017-11-01T07:59:36.808Z,7.63
2017-11-01T08:02:03.002Z,9.23
2017-11-01T08:04:32.229Z,7.90
2017-11-01T08:06:59.177Z,9.00
2017-11-01T08:09:25.384Z,8.70
2017-11-01T08:11:51.583Z,8.20
2017-11-01T08:14:18.316Z,8.20
2017-11-01T08:16:44.506Z,7.77
2017-11-01T08:19:10.750Z,7.90
2017-11-01T08:21:36.922Z,9.10
2017-11-01T08:24:03.095Z,8.10
2017-11-01T08:26:29.315Z,7.83
2017-11-01T08:28:55.488Z,7.40
2017-11-01T08:31:21.751Z,8.20
2017-11-01T08:33:47.989Z,7.47
2017-11-01T08:36:14.216Z,7.33
2017-11-01T08:38:40.938Z,7.53
2017-11-01T08:41:08.041Z,7.30
2017-11-01T08:43:34.306Z,6.57
2017-11-01T08:46:00.487Z,6.93
2017-11-01T08:48:26.732Z,7.50
2017-11-01T08:50:52.968Z,7.20
2017-11-01T08:53:19.914Z,7.20
2017-11-01T08:55:46.162Z,8.60
2017-11-01T08:58:12.381Z,6.97
2017-11-01T09:00:38.940Z,6.83
2017-11-01T09:03:05.168Z,6.50
2017-11-01T09:05:31.371Z,5.80
2017-11-01T09:07:57.566Z,7.10
2017-11-01T09:10:23.907Z,6.80
2017-11-01T09:12:50.078Z,6.00
2017-11-01T09:15:17.056Z,6.70
2017-11-01T09:17:43.230Z,6.90
2017-11-01T09:20:09.777Z,7.17
2017-11-01T09:22:36.030Z,7.13
2017-11-01T09:25:03.070Z,7.10
2017-11-01T09:27:29.264Z,6.53
2017-11-01T09:29:55.491Z,6.77
2017-11-01T09:32:21.688Z,6.87
2017-11-01T09:34:47.906Z,5.73
2017-11-01T09:37:14.116Z,5.70
2017-11-01T09:39:40.690Z,5.97
2017-11-01T09:42:06.846Z,6.40
2017-11-01T09:44:33.431Z,5.27
2017-11-01T09:46:59.624Z,5.90
2017-11-01T09:49:25.848Z,6.17
2017-11-01T09:51:53.523Z,7.27
2017-11-01T09:54:19.971Z,7.50
2017-11-01T09:56:46.169Z,6.30
2017-11-01T09:59:12.354Z,5.43
2017-11-01T10:01:39.672Z,6.57
2017-11-01T10:04:05.905Z,7.00
2017-11-01T10:06:32.124Z,5.43
2017-11-01T10:08:58.356Z,4.70
2017-11-01T10:11:26.491Z,5.00
2017-11-01T10:13:52.790Z,5.13
2017-11-01T10:16:19.393Z,5.87
2017-11-01T10:18:47.002Z,4.57
2017-11-01T10:21:13.418Z,5.23
2017-11-01T10:23:39.599Z,4.43
2017-11-01T10:26:05.805Z,8.47
2017-11-01T10:28:32.749Z,5.40
2017-11-01T10:30:59.516Z,3.93
2017-11-01T10:33:26.182Z,3.97
2017-11-01T10:35:53.385Z,4.33
2017-11-01T10:38:19.982Z,4.57
2017-11-01T10:40:46.187Z,3.93
2017-11-01T10:43:13.108Z,4.20
2017-11-01T10:45:39.729Z,4.73
2017-11-01T10:48:05.969Z,5.13
2017-11-01T10:50:32.196Z,4.13
2017-11-01T10:52:58.351Z,4.30
2017-11-01T11:05:04.614Z,4.67
2017-11-01T11:07:30.806Z,4.33
2017-11-01T11:09:57.020Z,3.83
2017-11-01T11:12:23.197Z,4.30
2017-11-01T11:14:49.760Z,3.60
2017-11-01T11:17:16.452Z,4.20
2017-11-01T11:19:43.009Z,4.30
2017-11-01T11:22:09.980Z,3.90
2017-11-01T11:24:36.193Z,4.87
2017-11-01T11:27:02.410Z,4.70
2017-11-01T11:29:28.613Z,4.00
2017-11-01T11:31:54.983Z,4.20
2017-11-01T11:34:21.270Z,4.50
2017-11-01T11:36:49.082Z,4.57
2017-11-01T11:39:15.303Z,4.40
2017-11-01T11:41:41.483Z,3.90
2017-11-01T11:44:08.186Z,4.00
2017-11-01T11:46:35.082Z,3.97
2017-11-01T11:49:01.352Z,4.17
2017-11-01T11:51:27.554Z,4.17
2017-11-01T11:53:53.758Z,3.80
2017-11-01T11:56:19.995Z,4.37
2017-11-01T11:58:46.193Z,4.00
2017-11-01T12:01:12.394Z,3.23
2017-11-01T12:03:38.592Z,3.60
2017-11-01T12:06:05.223Z,3.33
2017-11-01T12:08:31.528Z,4.27
2017-11-01T12:10:58.153Z,4.40
2017-11-01T12:13:25.112Z,4.20
2017-11-01T12:15:51.338Z,3.67
2017-11-01T12:18:17.542Z,3.80
2017-11-01T12:20:44.130Z,3.87
2017-11-01T12:23:11.142Z,4.43
2017-11-01T12:25:37.618Z,4.60
2017-11-01T12:28:05.426Z,5.03
2017-11-01T12:30:31.867Z,5.20
2017-11-01T12:32:58.066Z,3.70
2017-11-01T12:35:24.315Z,4.03
2017-11-01T12:37:50.472Z,4.40
2017-11-01T12:40:17.094Z,3.60
2017-11-01T12:42:44.024Z,4.07
2017-11-01T12:45:10.243Z,3.67
2017-11-01T12:47:36.465Z,4.43
2017-11-01T12:50:02.697Z,3.60
2017-11-01T12:52:28.917Z,3.87
2017-11-01T12:54:55.102Z,4.00
2017-11-01T12:57:21.370Z,3.20
2017-11-01T12:59:47.552Z,3.47
2017-11-01T13:02:13.809Z,3.63
2017-11-01T13:04:40.077Z,3.67
2017-11-01T13:07:06.460Z,4.43
2017-11-01T13:09:32.758Z,3.80
2017-11-01T13:11:59.519Z,3.70
2017-11-01T13:14:25.772Z,3.30
2017-11-01T13:16:51.936Z,3.80
2017-11-01T13:19:18.163Z,6.43
2017-11-01T13:21:44.331Z,6.53
2017-11-01T13:24:13.357Z,5.03
2017-11-01T13:26:39.583Z,6.33
2017-11-01T13:29:05.864Z,6.40
2017-11-01T13:31:32.082Z,4.67
2017-11-01T13:33:58.268Z,3.50
2017-11-01T13:36:24.447Z,2.87
2017-11-01T13:38:51.570Z,4.10
2017-11-01T13:41:17.823Z,4.20
2017-11-01T13:43:44.217Z,3.23
2017-11-01T13:46:11.550Z,3.43
2017-11-01T13:48:37.803Z,3.50
2017-11-01T13:51:04.866Z,4.07
2017-11-01T13:53:33.118Z,3.57
2017-11-01T13:56:00.052Z,3.60
2017-11-01T13:58:26.294Z,3.80
2017-11-01T14:00:52.597Z,3.70
2017-11-01T14:03:18.793Z,4.10
2017-11-01T14:05:45.101Z,3.70
2017-11-01T14:08:12.323Z,3.27
2017-11-01T14:10:38.543Z,4.17
2017-11-01T14:13:05.601Z,3.87
2017-11-01T14:15:31.847Z,3.53
2017-11-01T14:17:58.860Z,4.17
2017-11-01T14:20:26.383Z,2.93
2017-11-01T14:22:53.443Z,3.23
2017-11-01T14:25:19.821Z,3.20
2017-11-01T14:27:46.225Z,3.33
2017-11-01T14:30:14.497Z,3.43
2017-11-01T14:32:40.682Z,4.40
2017-11-01T14:35:07.290Z,4.83
2017-11-01T14:37:33.552Z,4.17
2017-11-01T14:40:01.196Z,4.10
2017-11-01T14:42:27.422Z,4.73
2017-11-01T14:44:53.659Z,4.20
2017-11-01T14:47:22.286Z,4.37
2017-11-01T14:49:48.725Z,4.13
2017-11-01T14:52:14.914Z,4.03
2017-11-01T14:54:41.082Z,4.00
2017-11-01T14:57:08.159Z,3.27
2017-11-01T14:59:34.339Z,4.10
2017-11-01T15:02:00.544Z,3.63
2017-11-01T15:04:28.144Z,4.67
2017-11-01T15:06:55.053Z,4.50
2017-11-01T15:09:21.266Z,3.70
2017-11-01T15:11:47.481Z,3.30
2017-11-01T15:14:13.702Z,5.60
2017-11-01T15:16:39.934Z,3.10
2017-11-01T15:19:06.341Z,3.53
2017-11-01T15:21:33.307Z,3.63
2017-11-01T15:24:00.267Z,5.60
2017-11-01T15:26:26.422Z,4.70
2017-11-01T15:28:54.213Z,4.63
2017-11-01T15:31:21.171Z,4.50
2017-11-01T15:43:28.850Z,6.23
2017-11-01T15:45:55.373Z,6.10
2017-11-01T15:48:21.644Z,6.33
2017-11-01T15:50:48.397Z,5.10
2017-11-01T15:53:15.708Z,5.33
2017-11-01T15:55:42.776Z,4.70
2017-11-01T15:58:09.008Z,5.60
2017-11-01T16:00:35.346Z,5.57
2017-11-01T16:03:01.531Z,6.70
2017-11-01T16:05:28.164Z,5.43
2017-11-01T16:07:55.392Z,5.20
2017-11-01T16:10:21.604Z,4.87
2017-11-01T16:12:47.793Z,4.23
2017-11-01T16:15:14.008Z,4.33
2017-11-01T16:17:41.011Z,4.57
2017-11-01T16:20:07.173Z,4.50
2017-11-01T16:22:33.366Z,4.10
2017-11-01T16:24:59.588Z,3.80
2017-11-01T16:27:25.787Z,4.60
2017-11-01T16:29:52.052Z,4.50
2017-11-01T16:32:18.355Z,3.90
2017-11-01T16:34:44.581Z,4.60
2017-11-01T16:37:11.611Z,3.70
2017-11-01T16:39:37.852Z,4.07
2017-11-01T16:42:04.144Z,4.40
2017-11-01T16:44:32.405Z,4.50
2017-11-01T16:46:59.448Z,4.90
2017-11-01T16:49:25.653Z,4.93
2017-11-01T16:51:52.496Z,4.60
2017-11-01T16:56:53.291Z,4.63
2017-11-01T16:59:19.552Z,4.80
2017-11-01T17:01:46.531Z,4.60
2017-11-01T17:04:13.723Z,4.90
2017-11-01T17:06:40.003Z,5.20
2017-11-01T17:09:06.200Z,4.70
2017-11-01T17:11:33.052Z,4.87
2017-11-01T17:13:59.968Z,5.77
2017-11-01T17:16:26.733Z,5.23
2017-11-01T17:18:54.195Z,6.07
2017-11-01T17:21:22.164Z,5.60
2017-11-01T17:23:49.734Z,6.80
2017-11-01T17:26:20.352Z,6.20
2017-11-01T17:28:50.976Z,5.30
2017-11-01T17:31:18.074Z,6.33
2017-11-01T17:33:44.896Z,5.83
2017-11-01T17:36:15.098Z,5.30
2017-11-01T17:38:43.480Z,5.97
2017-11-01T17:41:10.279Z,4.90
2017-11-01T17:43:37.522Z,5.00
2017-11-01T17:46:04.136Z,5.13
2017-11-01T17:48:31.991Z,4.87
2017-11-01T17:50:59.218Z,5.10
2017-11-01T17:53:25.728Z,5.00
2017-11-01T17:55:52.212Z,4.07
2017-11-01T17:58:20.447Z,4.80
2017-11-01T18:00:47.720Z,4.43
2017-11-01T18:03:13.966Z,4.93
2017-11-01T18:05:40.317Z,4.97
2017-11-01T18:08:08.999Z,4.87
2017-11-01T18:10:36.798Z,5.07
2017-11-01T18:13:03.763Z,5.37
2017-11-01T18:15:30.230Z,4.97
2017-11-01T18:17:57.496Z,4.40
2017-11-01T18:20:23.689Z,5.70
2017-11-01T18:22:49.931Z,5.60
2017-11-01T18:25:16.517Z,5.30
2017-11-01T18:27:43.516Z,4.80
2017-11-01T18:30:10.106Z,5.60
2017-11-01T18:32:36.314Z,4.67
2017-11-01T18:35:03.192Z,4.70
2017-11-01T18:37:31.780Z,5.27
2017-11-01T18:39:57.983Z,4.93
2017-11-01T18:42:25.081Z,4.83
2017-11-01T18:44:52.197Z,5.20
2017-11-01T18:47:18.375Z,4.53
2017-11-01T18:49:45.142Z,5.67
2017-11-01T18:52:12.341Z,4.70
2017-11-01T18:54:38.553Z,4.53
2017-11-01T18:57:04.947Z,4.93
2017-11-01T18:59:32.075Z,5.30
2017-11-01T19:01:58.281Z,5.90
2017-11-01T19:04:24.593Z,6.30
2017-11-01T19:06:51.003Z,4.90
2017-11-01T19:09:17.212Z,6.20
2017-11-01T19:11:45.448Z,6.27
2017-11-01T19:14:12.594Z,5.03
2017-11-01T19:16:39.169Z,4.80
2017-11-01T19:19:05.458Z,4.80
2017-11-01T19:21:32.152Z,5.87
2017-11-01T19:23:58.736Z,5.10
2017-11-01T19:26:25.600Z,6.67
2017-11-01T19:28:52.031Z,6.10
2017-11-01T19:31:19.214Z,5.73
2017-11-01T19:33:45.481Z,5.47
2017-11-01T19:36:11.807Z,6.00
2017-11-01T19:38:39.189Z,5.83
2017-11-01T19:41:05.570Z,6.33
2017-11-01T19:43:31.891Z,6.73
2017-11-01T19:45:58.137Z,7.03
2017-11-01T19:48:25.645Z,6.90
2017-11-01T19:50:52.216Z,6.50
2017-11-01T19:53:19.308Z,7.50
2017-11-01T19:55:45.571Z,6.20
2017-11-01T19:58:11.834Z,6.90
2017-11-01T20:00:38.044Z,7.07
2017-11-01T20:03:04.419Z,7.13
2017-11-01T20:05:30.776Z,7.70
2017-11-01T20:07:57.006Z,5.90
2017-11-01T20:10:23.291Z,7.20
2017-11-01T20:12:49.476Z,6.40
2017-11-01T20:28:06.749Z,6.77
2017-11-01T20:30:33.183Z,6.20
2017-11-01T20:32:59.461Z,6.10
2017-11-01T20:35:25.760Z,6.30
2017-11-01T20:37:51.989Z,6.70
2017-11-01T20:40:18.834Z,6.70
2017-11-01T20:42:45.088Z,7.47
2017-11-01T20:45:11.376Z,6.60
2017-11-01T20:47:37.634Z,7.43
2017-11-01T20:50:04.612Z,7.03
2017-11-01T20:52:31.063Z,7.93
2017-11-01T20:54:57.671Z,8.00
2017-11-01T20:57:24.603Z,7.47
2017-11-01T20:59:50.834Z,8.60
2017-11-01T21:02:17.051Z,7.43
2017-11-01T21:04:43.285Z,7.47
2017-11-01T21:07:10.127Z,8.40
2017-11-01T21:09:36.713Z,9.63
2017-11-01T21:12:02.979Z,9.00
2017-11-01T21:14:29.368Z,7.70
2017-11-01T21:16:55.776Z,7.00
2017-11-01T21:19:22.505Z,6.70
2017-11-01T21:21:49.596Z,7.07
2017-11-01T21:24:15.792Z,7.00
2017-11-01T21:26:42.102Z,7.67
2017-11-01T21:29:08.332Z,6.97
2017-11-01T21:31:34.610Z,8.87
2017-11-01T21:34:00.826Z,7.30
2017-11-01T21:36:27.480Z,6.53
2017-11-01T21:38:53.695Z,7.50
2017-11-01T21:41:21.212Z,7.20
2017-11-01T21:43:47.382Z,8.23
2017-11-01T21:46:13.609Z,7.03
2017-11-01T21:48:40.870Z,7.90
2017-11-01T21:51:07.268Z,6.70
2017-11-01T21:53:34.585Z,6.43
2017-11-01T21:56:02.086Z,7.70
2017-11-01T21:58:28.905Z,6.20
2017-11-01T22:00:55.170Z,6.33
2017-11-01T22:03:26.068Z,6.40
2017-11-01T22:05:52.334Z,6.67
2017-11-01T22:08:18.680Z,6.70
2017-11-01T22:10:45.889Z,6.73
2017-11-01T22:13:12.114Z,6.03
2017-11-01T22:15:39.073Z,7.60
2017-11-01T22:18:05.305Z,7.70
2017-11-01T22:20:32.682Z,7.77
2017-11-01T22:22:58.864Z,7.90
2017-11-01T22:25:25.033Z,8.00
2017-11-01T22:27:52.094Z,7.23
2017-11-01T22:30:18.343Z,7.33
2017-11-01T22:32:44.584Z,6.93
2017-11-01T22:35:11.734Z,6.90
2017-11-01T22:37:38.942Z,6.70
2017-11-01T22:40:06.289Z,7.57
2017-11-01T22:42:32.570Z,6.83
2017-11-01T22:44:59.362Z,7.50
2017-11-01T22:47:26.345Z,6.37
2017-11-01T22:49:52.570Z,7.40
2017-11-01T22:52:19.263Z,7.80
2017-11-01T22:54:45.454Z,7.70
2017-11-01T22:57:12.435Z,7.30
2017-11-01T22:59:38.691Z,6.93
2017-11-01T23:02:04.992Z,7.33
2017-11-01T23:04:31.892Z,7.67
2017-11-01T23:06:58.922Z,7.03
2017-11-01T23:09:25.098Z,7.30
2017-11-01T23:11:52.091Z,7.97
2017-11-01T23:14:19.617Z,7.30
2017-11-01T23:16:46.446Z,6.60
2017-11-01T23:19:12.642Z,6.67
2017-11-01T23:21:39.283Z,6.17
2017-11-01T23:24:05.584Z,6.70
2017-11-01T23:26:31.811Z,6.07
2017-11-01T23:28:58.660Z,7.97
2017-11-01T23:31:25.804Z,7.97
2017-11-01T23:33:52.067Z,7.50
2017-11-01T23:36:18.351Z,7.57
2017-11-01T23:38:44.535Z,7.00
2017-11-01T23:41:10.847Z,8.97
2017-11-01T23:43:37.115Z,8.37
2017-11-01T23:46:03.390Z,7.03
2017-11-01T23:48:30.353Z,8.03
2017-11-01T23:50:56.583Z,7.80
2017-11-01T23:53:24.520Z,7.87
2017-11-01T23:55:51.912Z,7.33
2017-11-01T23:58:18.421Z,7.70
